Time;durP1;ratioP1;P1;durP2;ratioP2;P2;SDS_P1;SDS_P2;PMS_P1;PMS_P2;Temp;Humidity;BMP_temperature;BMP_pressure;BME280_temperature;BME280_humidity;BME280_pressure;Samples;Min_cycle;Max_cycle;Signal;HPM_P1;HPM_P2
2023/02/10 00:00:14;;;;;;;56.92;32.85;;;;;;;;;;5074053;28;20420;-73
2023/02/10 00:02:41;;;;;;;59.05;32.58;;;;;;;;;;5075183;28;20056;-73
2023/02/10 00:05:08;;;;;;;58.30;33.15;;;;;;;;;;5073714;28;20056;-73
2023/02/10 00:07:35;;;;;;;59.92;32.85;;;;;;;;;;5073378;28;20063;-73
2023/02/10 00:10:01;;;;;;;58.08;32.17;;;;;;;;;;5074955;28;20130;-73
2023/02/10 00:12:28;;;;;;;58.78;32.00;;;;;;;;;;5057280;28;20419;-73
2023/02/10 00:14:55;;;;;;;58.22;32.05;;;;;;;;;;5073423;28;20052;-73
2023/02/10 00:17:21;;;;;;;60.13;33.08;;;;;;;;;;5073305;28;20063;-73
2023/02/10 00:19:48;;;;;;;60.65;32.63;;;;;;;;;;5073516;28;20059;-73
2023/02/10 00:22:15;;;;;;;59.83;31.05;;;;;;;;;;5073421;28;20053;-73
2023/02/10 00:24:42;;;;;;;58.60;32.45;;;;;;;;;;5073179;28;20150;-73
2023/02/10 00:27:08;;;;;;;55.65;30.73;;;;;;;;;;5073421;28;20056;-73
2023/02/10 00:29:35;;;;;;;55.92;30.23;;;;;;;;;;5073076;28;20055;-73
2023/02/10 00:32:02;;;;;;;55.20;31.33;;;;;;;;;;5073304;28;20135;-73
2023/02/10 00:34:29;;;;;;;57.90;31.10;;;;;;;;;;5073174;28;20057;-73
2023/02/10 00:36:56;;;;;;;54.00;29.33;;;;;;;;;;5072758;28;20052;-73
2023/02/10 00:39:22;;;;;;;58.67;30.45;;;;;;;;;;5073183;28;20138;-73
2023/02/10 00:41:49;;;;;;;55.20;31.05;;;;;;;;;;5072695;28;20078;-73
2023/02/10 00:44:16;;;;;;;58.97;30.73;;;;;;;;;;5073120;28;20059;-73
2023/02/10 00:46:42;;;;;;;55.45;30.50;;;;;;;;;;5073199;28;20079;-73
2023/02/10 00:49:10;;;;;;;56.67;30.80;;;;;;;;;;5072734;28;20102;-73
2023/02/10 00:51:37;;;;;;;55.15;30.50;;;;;;;;;;5072871;28;20063;-73
2023/02/10 00:54:03;;;;;;;55.42;29.75;;;;;;;;;;5072799;28;20063;-73
2023/02/10 00:56:30;;;;;;;56.22;31.15;;;;;;;;;;5073005;28;20052;-73
2023/02/10 00:58:57;;;;;;;54.08;32.08;;;;;;;;;;5072639;28;20060;-73
2023/02/10 01:01:23;;;;;;;51.40;28.95;;;;;;;;;;5072716;28;20056;-73
2023/02/10 01:03:50;;;;;;;58.72;31.75;;;;;;;;;;5073954;28;20048;-73
2023/02/10 01:06:17;;;;;;;58.67;32.10;;;;;;;;;;5077506;28;20146;-73
2023/02/10 01:08:44;;;;;;;64.03;33.00;;;;;;;;;;5071208;28;20058;-73
2023/02/10 01:11:11;;;;;;;57.15;30.85;;;;;;;;;;5072808;28;20059;-73
2023/02/10 01:13:39;;;;;;;56.33;30.67;;;;;;;;;;5072482;28;20053;-73
2023/02/10 01:16:11;;;;;;;53.03;31.10;;;;;;;;;;5072447;28;20059;-73
2023/02/10 01:18:39;;;;;;;61.65;32.72;;;;;;;;;;5056011;28;20075;-73
2023/02/10 01:21:14;;;;;;;56.70;31.58;;;;;;;;;;5072215;28;20518;-73
2023/02/10 01:23:40;;;;;;;54.75;30.88;;;;;;;;;;5072568;28;20052;-73
2023/02/10 01:26:08;;;;;;;58.80;30.48;;;;;;;;;;5055848;28;20052;-73
2023/02/10 01:28:39;;;;;;;55.20;29.33;;;;;;;;;;5071942;28;20062;-73
2023/02/10 01:31:07;;;;;;;57.13;30.52;;;;;;;;;;5072081;28;20056;-73
2023/02/10 01:33:34;;;;;;;55.88;31.35;;;;;;;;;;5073217;28;20542;-73
2023/02/10 01:36:05;;;;;;;59.30;31.55;;;;;;;;;;5071862;28;20068;-73
2023/02/10 01:38:32;;;;;;;56.97;30.95;;;;;;;;;;5055409;28;20057;-73
2023/02/10 01:41:00;;;;;;;54.95;30.35;;;;;;;;;;5071359;28;20443;-73
2023/02/10 01:43:27;;;;;;;53.95;30.85;;;;;;;;;;5071995;28;20059;-73
2023/02/10 01:45:54;;;;;;;55.75;31.73;;;;;;;;;;5072129;28;20492;-72
2023/02/10 01:48:21;;;;;;;58.25;32.15;;;;;;;;;;5071550;28;20397;-72
2023/02/10 01:50:57;;;;;;;62.25;32.40;;;;;;;;;;5071872;28;20146;-73
2023/02/10 01:53:24;;;;;;;55.15;29.48;;;;;;;;;;5055408;28;20057;-73
2023/02/10 01:55:53;;;;;;;60.33;31.83;;;;;;;;;;5055318;28;20075;-72
2023/02/10 01:58:21;;;;;;;57.10;31.35;;;;;;;;;;5071372;28;20063;-73
2023/02/10 02:00:48;;;;;;;55.25;30.60;;;;;;;;;;5071455;28;20412;-72
2023/02/10 02:03:15;;;;;;;53.97;30.23;;;;;;;;;;5072743;28;20052;-72
2023/02/10 02:05:42;;;;;;;51.00;28.83;;;;;;;;;;5071532;28;20600;-72
2023/02/10 02:08:16;;;;;;;51.50;29.50;;;;;;;;;;5071379;28;20493;-73
2023/02/10 02:11:11;;;;;;;58.42;31.38;;;;;;;;;;5055741;28;20056;-73
2023/02/10 02:13:46;;;;;;;55.25;30.33;;;;;;;;;;5054989;28;20052;-73
2023/02/10 02:16:32;;;;;;;47.67;28.73;;;;;;;;;;5071600;28;20405;-72
2023/02/10 02:19:24;;;;;;;57.08;31.45;;;;;;;;;;5070864;28;20082;-73
2023/02/10 02:22:05;;;;;;;57.25;31.73;;;;;;;;;;5071377;28;20052;-73
2023/02/10 02:24:41;;;;;;;55.28;30.75;;;;;;;;;;5055615;28;20090;-74
2023/02/10 02:27:32;;;;;;;50.08;27.88;;;;;;;;;;5071726;28;20052;-72
2023/02/10 02:30:34;;;;;;;54.92;30.05;;;;;;;;;;5071362;28;20045;-75
2023/02/10 02:33:12;;;;;;;52.35;30.55;;;;;;;;;;5066657;28;20056;-73
2023/02/10 02:35:41;;;;;;;52.03;31.05;;;;;;;;;;5070884;28;20511;-73
2023/02/10 02:38:08;;;;;;;56.92;30.73;;;;;;;;;;5071010;28;20389;-73
2023/02/10 02:40:35;;;;;;;59.33;32.05;;;;;;;;;;5054401;28;20075;-73
2023/02/10 02:43:02;;;;;;;55.78;31.38;;;;;;;;;;5070450;28;20482;-73
2023/02/10 02:45:42;;;;;;;54.63;31.35;;;;;;;;;;5054347;28;20499;-72
2023/02/10 02:48:24;;;;;;;59.67;29.90;;;;;;;;;;5070445;28;20102;-73
2023/02/10 02:51:18;;;;;;;52.80;30.42;;;;;;;;;;5070849;28;20520;-73
2023/02/10 02:54:29;;;;;;;57.40;31.65;;;;;;;;;;5071117;28;20059;-73
2023/02/10 02:57:07;;;;;;;55.47;32.33;;;;;;;;;;5072080;28;20063;-73
2023/02/10 02:59:46;;;;;;;57.78;30.65;;;;;;;;;;5070609;28;20048;-73
2023/02/10 03:02:13;;;;;;;62.40;31.63;;;;;;;;;;5070550;28;20056;-73
2023/02/10 03:04:40;;;;;;;53.47;30.13;;;;;;;;;;5070435;28;20067;-73
2023/02/10 03:07:07;;;;;;;56.03;31.35;;;;;;;;;;5053801;28;20054;-73
2023/02/10 03:09:34;;;;;;;52.53;30.48;;;;;;;;;;5070574;28;20408;-73
2023/02/10 03:12:00;;;;;;;56.25;31.20;;;;;;;;;;5053995;28;20052;-73
2023/02/10 03:14:27;;;;;;;55.90;31.23;;;;;;;;;;5070386;28;20059;-73
2023/02/10 03:16:54;;;;;;;54.03;29.10;;;;;;;;;;5070278;28;20488;-73
2023/02/10 03:19:20;;;;;;;53.15;29.90;;;;;;;;;;5070146;28;20059;-74
2023/02/10 03:21:47;;;;;;;52.67;28.40;;;;;;;;;;5070541;28;20052;-73
2023/02/10 03:24:14;;;;;;;52.50;29.67;;;;;;;;;;5053846;28;20056;-73
2023/02/10 03:26:41;;;;;;;54.05;29.88;;;;;;;;;;5070445;28;20048;-73
2023/02/10 03:29:09;;;;;;;53.88;29.73;;;;;;;;;;5070394;28;20098;-73
2023/02/10 03:31:36;;;;;;;52.78;29.23;;;;;;;;;;5071006;28;20118;-73
2023/02/10 03:34:03;;;;;;;53.17;29.75;;;;;;;;;;5074262;28;20084;-73
2023/02/10 03:36:29;;;;;;;47.95;29.10;;;;;;;;;;5074744;28;20053;-73
2023/02/10 03:38:56;;;;;;;46.88;27.60;;;;;;;;;;5074047;28;20052;-73
2023/02/10 03:41:23;;;;;;;49.65;28.85;;;;;;;;;;5073655;28;20471;-73
2023/02/10 03:43:50;;;;;;;52.65;28.63;;;;;;;;;;5057672;28;20052;-73
2023/02/10 03:46:17;;;;;;;47.22;27.48;;;;;;;;;;5057611;28;20079;-73
2023/02/10 03:48:43;;;;;;;51.08;28.73;;;;;;;;;;5073984;28;20049;-73
2023/02/10 03:51:10;;;;;;;51.25;29.08;;;;;;;;;;5074264;28;20452;-73
2023/02/10 03:53:37;;;;;;;55.85;29.95;;;;;;;;;;5057699;28;20052;-73
2023/02/10 03:56:04;;;;;;;53.92;30.15;;;;;;;;;;5074039;28;20056;-73
2023/02/10 03:58:31;;;;;;;55.47;30.17;;;;;;;;;;5075001;28;20060;-72
2023/02/10 04:00:57;;;;;;;53.08;29.33;;;;;;;;;;5073602;28;20116;-73
2023/02/10 04:03:24;;;;;;;56.50;29.55;;;;;;;;;;5074085;28;20404;-73
2023/02/10 04:05:51;;;;;;;53.78;30.08;;;;;;;;;;5057330;28;20098;-73
2023/02/10 04:08:18;;;;;;;54.30;31.23;;;;;;;;;;5073431;28;20512;-73
2023/02/10 04:10:44;;;;;;;54.90;29.90;;;;;;;;;;5073837;28;20512;-73
2023/02/10 04:13:11;;;;;;;59.15;31.38;;;;;;;;;;5073855;28;20059;-73
2023/02/10 04:15:38;;;;;;;53.45;29.23;;;;;;;;;;5073613;28;20074;-73
2023/02/10 04:18:05;;;;;;;55.80;30.30;;;;;;;;;;5056901;28;20139;-73
2023/02/10 04:20:31;;;;;;;52.47;29.70;;;;;;;;;;5073491;28;20044;-73
2023/02/10 04:22:58;;;;;;;59.20;29.92;;;;;;;;;;5073565;28;20390;-73
2023/02/10 04:25:25;;;;;;;56.08;29.80;;;;;;;;;;5073452;28;20079;-73
2023/02/10 04:27:51;;;;;;;55.58;30.50;;;;;;;;;;5073299;28;20048;-73
2023/02/10 04:30:18;;;;;;;52.97;30.38;;;;;;;;;;5073297;28;20523;-73
2023/02/10 04:32:45;;;;;;;55.47;30.63;;;;;;;;;;5056835;28;20048;-73
2023/02/10 04:35:12;;;;;;;54.33;29.85;;;;;;;;;;5057908;28;20059;-73
2023/02/10 04:37:38;;;;;;;55.65;30.77;;;;;;;;;;5073267;28;20056;-73
2023/02/10 04:40:05;;;;;;;56.45;31.08;;;;;;;;;;5056661;28;20052;-73
2023/02/10 04:42:32;;;;;;;50.17;29.08;;;;;;;;;;5072855;28;20056;-73
2023/02/10 04:44:59;;;;;;;52.55;29.38;;;;;;;;;;5072988;28;20052;-73
2023/02/10 04:47:26;;;;;;;53.05;29.58;;;;;;;;;;5072908;28;20061;-73
2023/02/10 04:49:53;;;;;;;59.03;30.38;;;;;;;;;;5073413;28;20398;-73
2023/02/10 04:52:20;;;;;;;58.97;30.58;;;;;;;;;;5056563;28;20158;-73
2023/02/10 04:54:47;;;;;;;55.70;31.95;;;;;;;;;;5073002;28;20059;-73
2023/02/10 04:57:13;;;;;;;59.38;32.20;;;;;;;;;;5072813;28;20427;-73
2023/02/10 04:59:40;;;;;;;54.22;30.05;;;;;;;;;;5072965;28;20044;-73
2023/02/10 05:02:07;;;;;;;59.75;31.08;;;;;;;;;;5056667;28;20055;-73
2023/02/10 05:04:34;;;;;;;57.40;30.88;;;;;;;;;;5077625;28;20512;-73
2023/02/10 05:07:01;;;;;;;57.75;30.88;;;;;;;;;;5073403;28;20052;-73
2023/02/10 05:09:28;;;;;;;52.58;30.45;;;;;;;;;;5073474;28;20053;-73
2023/02/10 05:11:55;;;;;;;55.75;32.10;;;;;;;;;;5073240;28;20500;-73
2023/02/10 05:14:22;;;;;;;54.67;30.33;;;;;;;;;;5056465;28;20496;-73
2023/02/10 05:16:49;;;;;;;52.30;30.60;;;;;;;;;;5073076;28;20052;-72
2023/02/10 05:19:15;;;;;;;55.92;30.05;;;;;;;;;;5056605;28;20052;-73
2023/02/10 05:21:42;;;;;;;58.58;32.17;;;;;;;;;;5072543;28;20194;-73
2023/02/10 05:24:09;;;;;;;58.90;32.13;;;;;;;;;;5073617;28;20056;-73
2023/02/10 05:26:35;;;;;;;61.42;32.88;;;;;;;;;;5073096;28;20055;-73
2023/02/10 05:29:02;;;;;;;63.75;33.92;;;;;;;;;;5055741;28;20131;-73
2023/02/10 05:31:29;;;;;;;58.60;31.25;;;;;;;;;;5055843;28;20041;-73
2023/02/10 05:33:56;;;;;;;52.83;30.70;;;;;;;;;;5072344;28;20090;-73
2023/02/10 05:36:23;;;;;;;56.75;31.95;;;;;;;;;;5072376;28;20060;-73
2023/02/10 05:41:34;;;;;;;56.55;31.40;;;;;;;;;;5072126;28;20146;-73
2023/02/10 05:44:01;;;;;;;52.50;29.95;;;;;;;;;;5072445;28;20056;-73
2023/02/10 05:46:28;;;;;;;56.67;30.73;;;;;;;;;;5072338;28;20139;-73
2023/02/10 05:48:55;;;;;;;57.15;31.52;;;;;;;;;;5071949;28;20056;-73
2023/02/10 05:51:22;;;;;;;57.88;32.22;;;;;;;;;;5071814;28;20052;-73
2023/02/10 05:53:48;;;;;;;59.78;33.92;;;;;;;;;;5071995;28;20048;-73
2023/02/10 05:56:15;;;;;;;56.65;32.22;;;;;;;;;;5071496;28;20048;-73
2023/02/10 05:58:42;;;;;;;56.72;31.25;;;;;;;;;;5071511;28;20511;-73
2023/02/10 06:01:10;;;;;;;66.43;36.58;;;;;;;;;;5071920;28;20055;-73
2023/02/10 06:03:37;;;;;;;71.97;39.45;;;;;;;;;;5071797;28;20056;-73
2023/02/10 06:06:04;;;;;;;61.35;35.72;;;;;;;;;;5071461;28;20057;-73
2023/02/10 06:08:31;;;;;;;59.53;34.05;;;;;;;;;;5054879;28;20048;-73
2023/02/10 06:10:57;;;;;;;59.05;33.03;;;;;;;;;;5071606;28;20055;-73
2023/02/10 06:13:24;;;;;;;57.05;32.38;;;;;;;;;;5071625;28;20068;-73
2023/02/10 06:15:51;;;;;;;54.30;30.08;;;;;;;;;;5072009;28;20439;-73
2023/02/10 06:18:18;;;;;;;56.58;30.88;;;;;;;;;;5071842;28;20060;-73
2023/02/10 06:20:45;;;;;;;57.78;31.85;;;;;;;;;;5071126;28;20063;-73
2023/02/10 06:23:13;;;;;;;54.83;30.52;;;;;;;;;;5073857;28;20500;-73
2023/02/10 06:25:39;;;;;;;55.85;30.52;;;;;;;;;;5054686;28;20056;-73
2023/02/10 06:28:06;;;;;;;55.80;31.45;;;;;;;;;;5070840;28;20058;-73
2023/02/10 06:30:33;;;;;;;53.80;30.35;;;;;;;;;;5071179;28;20056;-73
2023/02/10 06:33:00;;;;;;;50.78;29.17;;;;;;;;;;5071045;28;20052;-73
2023/02/10 06:35:26;;;;;;;56.58;29.35;;;;;;;;;;5070861;28;20056;-73
2023/02/10 06:37:53;;;;;;;57.70;30.50;;;;;;;;;;5071044;28;20056;-73
2023/02/10 06:40:20;;;;;;;57.25;29.42;;;;;;;;;;5054653;28;20135;-73
2023/02/10 06:42:47;;;;;;;61.92;31.42;;;;;;;;;;5070621;28;20397;-73
2023/02/10 06:45:14;;;;;;;53.72;30.98;;;;;;;;;;5071110;28;20053;-73
2023/02/10 06:47:41;;;;;;;53.05;29.80;;;;;;;;;;5070557;28;20063;-73
2023/02/10 06:50:08;;;;;;;62.50;30.83;;;;;;;;;;5071184;28;20401;-73
2023/02/10 06:52:37;;;;;;;59.25;31.65;;;;;;;;;;5071070;28;20099;-73
2023/02/10 06:55:07;;;;;;;60.08;31.73;;;;;;;;;;5072086;28;20389;-73
2023/02/10 06:57:35;;;;;;;54.25;32.65;;;;;;;;;;5071610;28;20051;-73
2023/02/10 07:00:07;;;;;;;55.60;30.60;;;;;;;;;;5071516;28;20515;-73
2023/02/10 07:02:34;;;;;;;55.40;31.07;;;;;;;;;;5071090;28;20059;-73
2023/02/10 07:05:06;;;;;;;51.22;29.48;;;;;;;;;;5054283;28;20293;-73
2023/02/10 07:07:33;;;;;;;53.95;29.27;;;;;;;;;;5069734;28;20058;-73
2023/02/10 07:10:00;;;;;;;56.63;29.95;;;;;;;;;;5072550;28;20075;-73
2023/02/10 07:12:27;;;;;;;55.70;30.48;;;;;;;;;;5070537;28;20049;-73
2023/02/10 07:14:54;;;;;;;59.78;31.80;;;;;;;;;;5070767;28;20059;-73
2023/02/10 07:17:21;;;;;;;53.33;30.67;;;;;;;;;;5070688;28;20055;-73
2023/02/10 07:19:47;;;;;;;52.38;30.98;;;;;;;;;;5070736;28;20500;-73
2023/02/10 07:22:14;;;;;;;54.72;30.58;;;;;;;;;;5070609;28;20052;-73
2023/02/10 07:24:41;;;;;;;60.08;30.90;;;;;;;;;;5070506;28;20055;-73
2023/02/10 07:27:08;;;;;;;53.78;30.30;;;;;;;;;;5070316;28;20079;-73
2023/02/10 07:29:35;;;;;;;58.35;30.20;;;;;;;;;;5070667;28;20079;-73
2023/02/10 07:32:01;;;;;;;56.20;29.95;;;;;;;;;;5070542;28;20049;-73
2023/02/10 07:34:30;;;;;;;56.33;30.75;;;;;;;;;;5070789;28;20085;-73
2023/02/10 07:36:57;;;;;;;52.50;29.65;;;;;;;;;;5054159;28;20053;-73
2023/02/10 07:39:24;;;;;;;52.42;29.80;;;;;;;;;;5071446;28;20052;-73
2023/02/10 07:41:50;;;;;;;55.15;30.45;;;;;;;;;;5069947;28;20059;-73
2023/02/10 07:44:18;;;;;;;51.35;29.83;;;;;;;;;;5070485;28;20056;-73
2023/02/10 07:46:45;;;;;;;50.97;29.27;;;;;;;;;;5070494;28;20536;-74
2023/02/10 07:49:12;;;;;;;55.33;29.30;;;;;;;;;;5070351;28;20064;-73
2023/02/10 07:51:39;;;;;;;51.10;28.60;;;;;;;;;;5070201;28;20420;-73
2023/02/10 07:54:05;;;;;;;53.50;29.42;;;;;;;;;;5070204;28;20424;-73
2023/02/10 07:56:32;;;;;;;52.13;29.30;;;;;;;;;;5037048;28;20056;-73
2023/02/10 07:58:59;;;;;;;50.78;29.88;;;;;;;;;;5070242;28;20060;-73
2023/02/10 08:01:27;;;;;;;52.78;29.55;;;;;;;;;;5070254;28;20060;-73
2023/02/10 08:03:53;;;;;;;55.33;29.27;;;;;;;;;;5070352;28;20114;-73
2023/02/10 08:06:21;;;;;;;51.20;29.55;;;;;;;;;;5070355;28;20063;-73
2023/02/10 08:08:48;;;;;;;51.38;30.00;;;;;;;;;;5053528;28;20045;-73
2023/02/10 08:11:15;;;;;;;55.63;30.25;;;;;;;;;;5070082;28;20052;-73
2023/02/10 08:13:42;;;;;;;49.10;29.02;;;;;;;;;;5053628;28;20408;-73
2023/02/10 08:16:11;;;;;;;59.55;29.58;;;;;;;;;;5069968;28;20055;-73
2023/02/10 08:18:38;;;;;;;60.58;29.58;;;;;;;;;;5071507;28;20056;-73
2023/02/10 08:21:05;;;;;;;51.22;29.48;;;;;;;;;;5057372;28;20485;-73
2023/02/10 08:23:32;;;;;;;55.42;28.60;;;;;;;;;;5056978;28;20488;-73
2023/02/10 08:26:05;;;;;;;46.85;28.23;;;;;;;;;;5057217;28;20049;-73
2023/02/10 08:28:33;;;;;;;49.00;28.05;;;;;;;;;;5073408;28;20059;-73
2023/02/10 08:31:00;;;;;;;46.28;27.52;;;;;;;;;;5073643;28;20056;-73
2023/02/10 08:33:27;;;;;;;52.28;27.70;;;;;;;;;;5056881;28;20082;-73
2023/02/10 08:36:08;;;;;;;50.67;29.25;;;;;;;;;;5073920;28;20091;-73
2023/02/10 08:38:35;;;;;;;52.22;29.38;;;;;;;;;;5073567;28;20055;-73
2023/02/10 08:41:02;;;;;;;46.70;27.30;;;;;;;;;;5074309;28;20048;-73
2023/02/10 08:43:29;;;;;;;48.92;27.10;;;;;;;;;;5056671;28;20053;-73
2023/02/10 08:45:57;;;;;;;48.28;28.80;;;;;;;;;;5072903;28;20064;-73
2023/02/10 08:48:23;;;;;;;52.40;28.85;;;;;;;;;;5072697;28;20052;-73
2023/02/10 08:50:50;;;;;;;45.50;26.08;;;;;;;;;;5073217;28;20079;-73
2023/02/10 08:53:17;;;;;;;47.80;27.50;;;;;;;;;;5073205;28;20059;-73
2023/02/10 08:55:43;;;;;;;45.55;26.27;;;;;;;;;;5073093;28;20076;-73
2023/02/10 08:58:10;;;;;;;49.70;26.90;;;;;;;;;;5056197;28;20048;-73
2023/02/10 09:00:37;;;;;;;47.08;25.52;;;;;;;;;;5073818;28;20052;-73
2023/02/10 09:03:04;;;;;;;46.15;26.98;;;;;;;;;;5072902;28;20126;-74
2023/02/10 09:05:30;;;;;;;44.88;26.88;;;;;;;;;;5073071;28;20070;-74
2023/02/10 09:07:57;;;;;;;46.60;25.98;;;;;;;;;;5039709;28;20132;-73
2023/02/10 09:10:24;;;;;;;40.42;24.70;;;;;;;;;;5072897;28;20049;-73
2023/02/10 09:12:51;;;;;;;41.40;26.30;;;;;;;;;;5073812;28;20505;-74
2023/02/10 09:15:17;;;;;;;42.55;24.98;;;;;;;;;;5072499;28;20052;-73
2023/02/10 09:17:44;;;;;;;46.03;26.48;;;;;;;;;;5072240;28;20059;-73
2023/02/10 09:20:11;;;;;;;46.50;25.70;;;;;;;;;;5056529;28;20053;-74
2023/02/10 09:22:38;;;;;;;45.35;25.98;;;;;;;;;;5072331;28;20048;-74
2023/02/10 09:25:05;;;;;;;44.42;25.88;;;;;;;;;;5072530;28;20056;-74
2023/02/10 09:27:32;;;;;;;43.28;25.08;;;;;;;;;;5072260;28;20489;-74
2023/02/10 09:29:59;;;;;;;40.13;24.73;;;;;;;;;;5126532;22;20094;-75
2023/02/10 09:32:25;;;;;;;43.15;25.50;;;;;;;;;;5056338;28;20595;-75
2023/02/10 09:34:52;;;;;;;43.03;25.60;;;;;;;;;;5040717;28;20052;-75
2023/02/10 09:37:20;;;;;;;41.05;24.92;;;;;;;;;;5074005;28;20159;-75
2023/02/10 09:39:47;;;;;;;46.30;26.00;;;;;;;;;;5040375;28;20048;-75
2023/02/10 09:42:37;;;;;;;43.63;24.90;;;;;;;;;;5055479;28;20051;-75
2023/02/10 09:45:14;;;;;;;39.20;24.83;;;;;;;;;;5053135;28;20055;-75
2023/02/10 09:48:00;;;;;;;43.78;25.15;;;;;;;;;;5039131;28;20052;-75
2023/02/10 09:50:32;;;;;;;42.00;25.45;;;;;;;;;;5039941;28;20185;-75
2023/02/10 09:53:08;;;;;;;39.05;24.75;;;;;;;;;;5071931;28;20051;-75
2023/02/10 09:55:49;;;;;;;40.03;25.90;;;;;;;;;;5071764;28;20463;-75
2023/02/10 09:58:27;;;;;;;38.42;24.58;;;;;;;;;;5040050;28;20139;-75
2023/02/10 10:01:30;;;;;;;42.45;24.05;;;;;;;;;;5039430;28;20048;-75
2023/02/10 10:04:05;;;;;;;42.00;25.13;;;;;;;;;;5054864;28;20048;-75
2023/02/10 10:06:33;;;;;;;43.35;24.10;;;;;;;;;;5057113;28;20225;-75
2023/02/10 10:09:07;;;;;;;38.85;23.50;;;;;;;;;;5039036;28;20048;-75
2023/02/10 10:11:53;;;;;;;41.10;24.77;;;;;;;;;;5071419;28;20041;-75
2023/02/10 10:14:29;;;;;;;36.55;22.70;;;;;;;;;;5071665;28;20557;-75
2023/02/10 10:17:34;;;;;;;39.97;24.60;;;;;;;;;;5038904;28;20049;-75
2023/02/10 10:20:36;;;;;;;45.60;24.55;;;;;;;;;;5052501;28;20492;-76
2023/02/10 10:24:07;;;;;;;39.05;23.80;;;;;;;;;;5071191;28;20055;-75
2023/02/10 10:26:49;;;;;;;35.10;22.05;;;;;;;;;;5027514;28;20493;-75
2023/02/10 10:29:23;;;;;;;36.55;22.30;;;;;;;;;;5071201;28;20048;-75
2023/02/10 10:31:58;;;;;;;41.80;22.90;;;;;;;;;;5054841;28;20500;-75
2023/02/10 10:34:26;;;;;;;36.58;21.77;;;;;;;;;;5038626;28;20523;-75
2023/02/10 10:36:55;;;;;;;37.88;22.27;;;;;;;;;;5038193;28;20049;-75
2023/02/10 10:39:33;;;;;;;36.13;21.15;;;;;;;;;;5054755;28;20501;-75
2023/02/10 10:42:04;;;;;;;33.50;20.52;;;;;;;;;;5070718;28;20125;-75
2023/02/10 10:44:31;;;;;;;39.42;23.13;;;;;;;;;;5038624;28;20048;-75
2023/02/10 10:47:08;;;;;;;36.20;21.98;;;;;;;;;;5037720;28;20080;-75
2023/02/10 10:49:35;;;;;;;38.30;21.25;;;;;;;;;;5072146;28;20056;-75
2023/02/10 10:52:27;;;;;;;35.45;21.98;;;;;;;;;;5054436;28;20064;-75
2023/02/10 10:54:55;;;;;;;38.60;22.13;;;;;;;;;;5057162;28;20397;-75
2023/02/10 10:57:22;;;;;;;36.75;20.67;;;;;;;;;;5071717;28;20049;-75
2023/02/10 10:59:51;;;;;;;33.63;21.23;;;;;;;;;;5037863;28;20056;-75
2023/02/10 11:02:19;;;;;;;35.92;21.15;;;;;;;;;;5037807;28;20489;-75
2023/02/10 11:04:46;;;;;;;33.55;19.80;;;;;;;;;;5037751;28;20098;-75
2023/02/10 11:07:19;;;;;;;35.17;22.10;;;;;;;;;;5037653;28;20045;-75
2023/02/10 11:09:51;;;;;;;32.35;20.90;;;;;;;;;;5037464;28;20053;-75
2023/02/10 11:12:29;;;;;;;34.28;20.63;;;;;;;;;;5037538;28;20044;-75
2023/02/10 11:14:57;;;;;;;35.88;20.95;;;;;;;;;;5037678;28;20049;-75
2023/02/10 11:17:27;;;;;;;32.45;19.33;;;;;;;;;;5053771;28;20113;-75
2023/02/10 11:20:12;;;;;;;32.75;19.25;;;;;;;;;;5054211;28;20045;-75
2023/02/10 11:22:40;;;;;;;32.92;18.75;;;;;;;;;;5070190;28;20045;-75
2023/02/10 11:25:36;;;;;;;31.65;18.85;;;;;;;;;;5037533;28;20052;-75
2023/02/10 11:28:05;;;;;;;30.48;18.02;;;;;;;;;;5045543;28;20090;-75
2023/02/10 11:30:37;;;;;;;32.70;18.77;;;;;;;;;;5053961;28;20139;-75
2023/02/10 11:33:06;;;;;;;31.48;17.77;;;;;;;;;;5037620;28;20045;-76
2023/02/10 11:35:33;;;;;;;28.15;17.35;;;;;;;;;;5037304;28;20044;-75
2023/02/10 11:38:14;;;;;;;28.77;17.50;;;;;;;;;;5037174;28;20052;-75
2023/02/10 11:40:47;;;;;;;29.05;17.50;;;;;;;;;;5053748;28;20048;-76
2023/02/10 11:43:14;;;;;;;;;;;;;;;;;;5070813;28;20048;-75
2023/02/10 11:45:51;;;;;;;28.73;17.63;;;;;;;;;;5070123;28;19920;-75
2023/02/10 11:48:20;;;;;;;29.08;16.77;;;;;;;;;;5037218;28;20052;-75
2023/02/10 11:50:47;;;;;;;26.83;17.52;;;;;;;;;;5037296;28;20052;-75
2023/02/10 11:53:26;;;;;;;29.95;17.63;;;;;;;;;;5038916;28;20041;-75
2023/02/10 11:56:03;;;;;;;27.92;17.50;;;;;;;;;;5041118;28;20058;-75
2023/02/10 11:59:08;;;;;;;31.40;17.77;;;;;;;;;;5042067;28;20060;-75
2023/02/10 12:01:40;;;;;;;25.60;15.50;;;;;;;;;;5057355;28;20048;-75
2023/02/10 12:04:19;;;;;;;29.88;16.75;;;;;;;;;;5073990;28;20056;-75
2023/02/10 12:06:48;;;;;;;26.92;15.55;;;;;;;;;;5057695;28;20493;-75
2023/02/10 12:09:25;;;;;;;23.75;14.85;;;;;;;;;;5075314;28;20052;-75
2023/02/10 12:12:04;;;;;;;24.30;15.25;;;;;;;;;;5041358;28;20477;-75
2023/02/10 12:14:49;;;;;;;26.42;14.82;;;;;;;;;;5057477;28;20057;-75
2023/02/10 12:17:29;;;;;;;26.50;15.35;;;;;;;;;;5073622;28;20052;-74
2023/02/10 12:20:17;;;;;;;25.63;16.38;;;;;;;;;;5056850;28;20056;-75
2023/02/10 12:23:22;;;;;;;25.10;15.05;;;;;;;;;;5074887;28;20131;-75
2023/02/10 12:25:57;;;;;;;21.45;14.80;;;;;;;;;;5073832;28;20048;-75
2023/02/10 12:28:43;;;;;;;26.42;16.65;;;;;;;;;;5041374;28;20048;-75
2023/02/10 12:31:21;;;;;;;29.83;15.85;;;;;;;;;;5042084;28;20049;-75
2023/02/10 12:34:02;;;;;;;27.30;15.77;;;;;;;;;;5057886;28;20048;-75
2023/02/10 12:36:34;;;;;;;24.50;15.38;;;;;;;;;;5041969;28;20048;-76
2023/02/10 12:39:21;;;;;;;25.85;15.60;;;;;;;;;;5040648;28;20052;-75
2023/02/10 12:42:26;;;;;;;24.33;16.13;;;;;;;;;;5040879;28;20052;-75
2023/02/10 12:44:58;;;;;;;27.38;16.15;;;;;;;;;;5056815;28;20048;-75
2023/02/10 12:47:47;;;;;;;25.55;16.60;;;;;;;;;;5056688;28;20049;-75
2023/02/10 12:50:17;;;;;;;24.58;15.75;;;;;;;;;;5073051;28;20049;-75
2023/02/10 12:52:50;;;;;;;25.50;15.20;;;;;;;;;;5073150;28;20123;-75
2023/02/10 12:55:19;;;;;;;23.88;14.90;;;;;;;;;;5040480;28;20059;-75
2023/02/10 12:57:51;;;;;;;24.08;15.20;;;;;;;;;;5040047;28;20058;-75
2023/02/10 13:00:37;;;;;;;23.80;15.00;;;;;;;;;;5040601;28;20063;-75
2023/02/10 13:03:22;;;;;;;25.73;16.58;;;;;;;;;;5056370;28;20045;-75
2023/02/10 13:05:56;;;;;;;21.95;14.98;;;;;;;;;;5040023;28;20048;-76
2023/02/10 13:08:33;;;;;;;24.50;16.15;;;;;;;;;;5040453;28;20057;-75
2023/02/10 13:11:05;;;;;;;24.25;16.60;;;;;;;;;;5056501;28;20056;-75
2023/02/10 13:13:32;;;;;;;24.65;17.55;;;;;;;;;;5040443;28;20044;-73
2023/02/10 13:16:32;;;;;;;21.40;15.93;;;;;;;;;;5039581;28;20059;-73
2023/02/10 13:19:14;;;;;;;23.42;15.85;;;;;;;;;;5034286;28;20492;-73
2023/02/10 13:22:03;;;;;;;29.20;16.67;;;;;;;;;;5056333;28;20091;-73
2023/02/10 13:24:41;;;;;;;24.02;15.55;;;;;;;;;;5072831;28;20053;-74
2023/02/10 13:27:23;;;;;;;22.10;15.73;;;;;;;;;;5041520;28;20056;-74
2023/02/10 13:30:14;;;;;;;23.58;16.40;;;;;;;;;;5072547;28;20053;-74
2023/02/10 13:33:36;;;;;;;29.77;16.83;;;;;;;;;;5072232;28;20489;-74
2023/02/10 13:36:05;;;;;;;22.75;15.85;;;;;;;;;;5034730;28;20055;-73
2023/02/10 13:38:32;;;;;;;27.95;17.92;;;;;;;;;;5035484;28;20055;-73
2023/02/10 13:43:46;;;;;;;26.02;17.77;;;;;;;;;;5058082;28;20540;-75
2023/02/10 13:46:21;;;;;;;27.38;17.85;;;;;;;;;;5039274;28;20058;-74
2023/02/10 13:48:56;;;;;;;27.90;16.80;;;;;;;;;;5039193;28;20053;-74
2023/02/10 13:51:36;;;;;;;28.27;17.83;;;;;;;;;;5039077;28;20044;-74
2023/02/10 13:54:04;;;;;;;23.48;16.48;;;;;;;;;;5039428;28;20132;-74
2023/02/10 13:56:32;;;;;;;25.52;16.27;;;;;;;;;;5038920;28;20083;-74
2023/02/10 13:59:07;;;;;;;22.67;14.73;;;;;;;;;;5038632;28;20051;-74
2023/02/10 14:01:41;;;;;;;25.05;15.85;;;;;;;;;;5039433;28;20071;-74
2023/02/10 14:04:17;;;;;;;22.40;15.15;;;;;;;;;;5071403;28;20098;-74
2023/02/10 14:06:46;;;;;;;20.52;13.82;;;;;;;;;;5071903;28;20127;-74
2023/02/10 14:09:28;;;;;;;24.08;15.20;;;;;;;;;;5038560;28;20081;-74
2023/02/10 14:12:00;;;;;;;23.65;15.10;;;;;;;;;;5071411;28;20053;-74
2023/02/10 14:14:27;;;;;;;26.77;15.35;;;;;;;;;;5054869;28;20093;-74
2023/02/10 14:17:13;;;;;;;23.25;15.18;;;;;;;;;;5054397;28;20128;-74
2023/02/10 14:19:44;;;;;;;23.95;14.95;;;;;;;;;;5071120;28;20508;-74
2023/02/10 14:22:27;;;;;;;24.15;14.82;;;;;;;;;;5055132;28;20056;-74
2023/02/10 14:24:54;;;;;;;24.00;14.88;;;;;;;;;;5055010;28;20052;-73
2023/02/10 14:27:22;;;;;;;26.65;15.18;;;;;;;;;;5054754;28;20076;-74
2023/02/10 14:30:31;;;;;;;25.10;15.30;;;;;;;;;;5054487;28;20056;-74
2023/02/10 14:32:57;;;;;;;27.80;16.38;;;;;;;;;;5052370;28;20133;-74
2023/02/10 14:35:25;;;;;;;25.08;15.32;;;;;;;;;;5038226;28;20127;-73
2023/02/10 14:37:57;;;;;;;25.05;15.27;;;;;;;;;;5038796;28;20052;-74
2023/02/10 14:40:25;;;;;;;26.67;15.93;;;;;;;;;;5038284;28;20048;-73
2023/02/10 14:42:52;;;;;;;23.02;13.70;;;;;;;;;;5037647;28;20049;-74
2023/02/10 14:45:24;;;;;;;24.02;14.95;;;;;;;;;;5037989;28;20056;-74
2023/02/10 14:47:56;;;;;;;25.95;15.25;;;;;;;;;;5038678;28;20055;-74